Terminal Aerodrome Forecast
Issued by NWS

Home | Current Version | Previous Version | Text Only | Print | Product List | Glossary On
Versions: 1 2 3 4 5 6 7 8 9 10 11 12 13 14 15 16 17 18 19 20 21 22 23 24 25 26 27 28 29 30 31 32
034
FTUS44 KOHX 262320
TAFCKV
TAF
KCKV 262320Z 2700/2724 20007KT P6SM SKC
      TEMPO 2700/2702 20013G21KT
     FM270900 21006KT P6SM BKN023
     FM271200 21007KT P6SM BKN006
     FM271700 22009KT P6SM BKN018
     FM271800 25008G18KT P6SM VCTS OVC025CB
     FM272100 25008G18KT P6SM VCTS SCT015CB BKN050=

USA.gov is the U.S. government's official web portal to all federal, state and local government web resources and services.